createdAt,value
2022-11-05T00:02:13.866Z,101161.34
2022-11-05T00:05:04.096Z,101157.19
2022-11-05T00:07:55.138Z,101147.03
2022-11-05T00:10:32.077Z,101147.13
2022-11-05T00:13:27.014Z,101134.25
2022-11-05T00:16:12.626Z,101135.19
2022-11-05T00:18:43.678Z,101136.94
2022-11-05T00:21:28.991Z,101140.41
2022-11-05T00:24:18.142Z,101131.81
2022-11-05T00:26:48.484Z,101126.69
2022-11-05T00:29:16.815Z,101120.75
2022-11-05T00:31:44.973Z,101114.84
2022-11-05T00:34:13.039Z,101117.47
2022-11-05T00:36:47.538Z,101113.25
2022-11-05T00:39:15.630Z,101109.03
2022-11-05T00:41:43.889Z,101098.78
2022-11-05T00:44:32.977Z,101094.63
2022-11-05T00:47:14.891Z,101087.03
2022-11-05T00:49:42.964Z,101088.03
2022-11-05T00:52:29.938Z,101082.97
2022-11-05T00:55:00.373Z,101082.16
2022-11-05T00:57:31.158Z,101077.91
2022-11-05T01:00:00.360Z,101066.78
2022-11-05T01:02:31.064Z,101070.28
2022-11-05T01:05:05.245Z,101070.28
2022-11-05T01:07:37.363Z,101067.72
2022-11-05T01:10:10.473Z,101068.44
2022-11-05T01:12:38.872Z,101071.00
2022-11-05T01:15:10.926Z,101072.66
2022-11-05T01:17:38.939Z,101073.50
2022-11-05T01:20:07.550Z,101063.16
2022-11-05T01:22:41.866Z,101069.09
2022-11-05T01:25:12.617Z,101057.03
2022-11-05T01:27:42.741Z,101058.63
2022-11-05T01:30:10.940Z,101056.84
2022-11-05T01:32:39.234Z,101061.06
2022-11-05T01:35:10.863Z,101061.88
2022-11-05T01:37:40.770Z,101060.97
2022-11-05T01:40:13.720Z,101052.38
2022-11-05T01:42:41.857Z,101054.91
2022-11-05T01:45:19.350Z,101048.00
2022-11-05T01:47:59.348Z,101052.28
2022-11-05T01:50:48.496Z,101041.91
2022-11-05T01:53:25.842Z,101040.94
2022-11-05T01:56:04.740Z,101039.19
2022-11-05T01:58:39.513Z,101040.75
2022-11-05T02:01:10.599Z,101026.06
2022-11-05T02:03:46.776Z,101022.53
2022-11-05T02:06:20.440Z,101015.56
2022-11-05T02:09:01.869Z,101017.19
2022-11-05T02:11:30.383Z,101023.16
2022-11-05T02:14:02.093Z,101018.88
2022-11-05T02:16:39.293Z,101011.09
2022-11-05T02:19:28.184Z,101005.06
2022-11-05T02:22:23.356Z,101008.50
2022-11-05T02:25:03.686Z,100999.09
2022-11-05T02:28:13.412Z,100999.09
2022-11-05T02:30:51.680Z,100993.13
2022-11-05T02:33:41.520Z,100986.25
2022-11-05T02:36:25.826Z,100977.69
2022-11-05T02:39:04.647Z,100979.44
2022-11-05T02:41:47.294Z,100966.56
2022-11-05T02:44:24.176Z,100969.19
2022-11-05T02:46:59.716Z,100964.06
2022-11-05T02:49:42.528Z,100955.50
2022-11-05T02:52:22.330Z,100946.94
2022-11-05T02:55:04.690Z,100942.69
2022-11-05T02:57:37.034Z,100941.84
2022-11-05T03:00:42.376Z,100928.09
2022-11-05T03:03:18.215Z,100920.41
2022-11-05T03:05:55.094Z,100912.63
2022-11-05T03:08:38.921Z,100908.38
2022-11-05T03:11:14.530Z,100899.78
2022-11-05T03:13:55.213Z,100891.22
2022-11-05T03:16:33.874Z,100877.53
2022-11-05T03:19:09.926Z,100874.13
2022-11-05T03:21:48.391Z,100862.06
2022-11-05T03:24:21.901Z,100863.81
2022-11-05T03:26:54.914Z,100864.69
2022-11-05T03:29:34.237Z,100850.97
2022-11-05T03:32:05.024Z,100843.31
2022-11-05T03:34:41.360Z,100841.56
2022-11-05T03:37:13.063Z,100831.25
2022-11-05T03:39:45.363Z,100819.22
2022-11-05T03:42:20.756Z,100802.03
2022-11-05T03:44:53.744Z,100788.31
2022-11-05T03:47:27.393Z,100778.09
2022-11-05T03:50:06.781Z,100776.38
2022-11-05T03:52:41.409Z,100786.78
2022-11-05T03:55:12.473Z,100788.50
2022-11-05T03:57:44.066Z,100784.28
2022-11-05T04:00:14.499Z,100772.31
2022-11-05T04:02:43.175Z,100762.06
2022-11-05T04:05:14.860Z,100760.31
2022-11-05T04:08:01.795Z,100756.00
2022-11-05T04:10:49.525Z,100752.59
2022-11-05T04:13:28.160Z,100757.81
2022-11-05T04:16:21.814Z,100746.63
2022-11-05T04:18:49.874Z,100738.88
2022-11-05T04:21:36.585Z,100731.16
2022-11-05T04:24:10.696Z,100726.91
2022-11-05T04:26:40.611Z,100723.44
2022-11-05T04:29:29.553Z,100706.28
2022-11-05T04:31:57.951Z,100695.97
2022-11-05T04:34:25.942Z,100690.81
2022-11-05T04:36:56.537Z,100674.47
2022-11-05T04:39:24.611Z,100657.34
2022-11-05T04:41:52.681Z,100654.75
2022-11-05T04:44:20.687Z,100637.56
2022-11-05T04:46:48.676Z,100628.94
2022-11-05T04:49:16.696Z,100631.47
2022-11-05T04:51:45.103Z,100634.00
2022-11-05T04:54:14.478Z,100639.22
2022-11-05T04:56:44.638Z,100630.66
2022-11-05T04:59:14.913Z,100627.25
2022-11-05T05:01:45.609Z,100622.16
2022-11-05T05:04:14.632Z,100616.13
2022-11-05T05:06:47.617Z,100617.91
2022-11-05T05:09:17.309Z,100609.31
2022-11-05T05:11:47.209Z,100593.88
2022-11-05T05:14:18.283Z,100599.03
2022-11-05T05:16:46.313Z,100591.38
2022-11-05T05:19:14.325Z,100576.78
2022-11-05T05:21:43.263Z,100581.09
2022-11-05T05:24:13.378Z,100577.69
2022-11-05T05:26:43.492Z,100564.88
2022-11-05T05:29:12.459Z,100558.06
2022-11-05T05:31:41.274Z,100562.38
2022-11-05T05:34:13.229Z,100551.25
2022-11-05T05:36:43.001Z,100549.59
2022-11-05T05:39:14.557Z,100543.59
2022-11-05T05:41:46.823Z,100544.50
2022-11-05T05:44:19.526Z,100524.78
2022-11-05T05:46:47.554Z,100524.81
2022-11-05T05:49:15.849Z,100528.31
2022-11-05T05:51:43.930Z,100529.22
2022-11-05T05:54:12.744Z,100519.81
2022-11-05T05:56:45.334Z,100512.97
2022-11-05T05:59:14.936Z,100523.34
2022-11-05T06:01:46.131Z,100508.75
2022-11-05T06:04:14.276Z,100504.50
2022-11-05T06:06:46.941Z,100497.66
2022-11-05T06:09:15.467Z,100499.41
2022-11-05T06:11:43.645Z,100491.72
2022-11-05T06:14:12.852Z,100494.38
2022-11-05T06:16:45.161Z,100491.81
2022-11-05T06:19:16.046Z,100499.63
2022-11-05T06:21:44.304Z,100494.50
2022-11-05T06:24:15.403Z,100491.09
2022-11-05T06:26:46.467Z,100487.72
2022-11-05T06:29:16.346Z,100485.16
2022-11-05T06:31:45.788Z,100483.50
2022-11-05T06:34:16.504Z,100474.94
2022-11-05T06:36:44.511Z,100468.09
2022-11-05T06:39:13.035Z,100457.81
2022-11-05T06:44:29.231Z,100454.47
2022-11-05T06:46:58.647Z,100448.47
2022-11-05T06:49:26.841Z,100451.94
2022-11-05T06:52:00.749Z,100437.31
2022-11-05T06:54:28.900Z,100443.38
2022-11-05T06:56:56.935Z,100440.81
2022-11-05T06:59:25.270Z,100433.09
2022-11-05T07:02:04.018Z,100436.53
2022-11-05T07:04:32.224Z,100442.53
2022-11-05T07:07:01.344Z,100446.91
2022-11-05T07:09:32.958Z,100424.56
2022-11-05T07:12:01.079Z,100416.88
2022-11-05T07:14:29.219Z,100410.84
2022-11-05T07:17:01.308Z,100413.50
2022-11-05T07:19:32.558Z,100416.97
2022-11-05T07:22:03.674Z,100415.28
2022-11-05T07:24:34.570Z,100403.25
2022-11-05T07:27:05.155Z,100405.88
2022-11-05T07:29:33.302Z,100398.16
2022-11-05T07:32:08.066Z,100407.69
2022-11-05T07:34:43.996Z,100406.03
2022-11-05T07:37:12.049Z,100404.34
2022-11-05T07:39:40.120Z,100407.81
2022-11-05T07:42:11.479Z,100409.66
2022-11-05T07:44:39.448Z,100407.09
2022-11-05T07:47:09.056Z,100395.97
2022-11-05T07:49:37.420Z,100400.31
2022-11-05T07:52:09.531Z,100391.75
2022-11-05T07:54:40.675Z,100396.97
2022-11-05T07:57:11.672Z,100382.38
2022-11-05T07:59:39.698Z,100377.19
2022-11-05T08:02:13.902Z,100385.84
2022-11-05T08:04:42.773Z,100378.06
2022-11-05T08:07:20.373Z,100372.06
2022-11-05T08:09:51.277Z,100385.00
2022-11-05T08:12:19.292Z,100386.75
2022-11-05T08:14:47.422Z,100390.19
2022-11-05T08:17:18.621Z,100385.88
2022-11-05T08:19:46.739Z,100385.03
2022-11-05T08:22:16.157Z,100384.22
2022-11-05T08:24:44.267Z,100368.72
2022-11-05T08:27:12.521Z,100369.59
2022-11-05T08:29:40.666Z,100367.94
2022-11-05T08:32:08.675Z,100361.91
2022-11-05T08:34:36.727Z,100362.78
2022-11-05T08:37:06.501Z,100369.72
2022-11-05T08:39:36.035Z,100372.31
2022-11-05T08:42:09.952Z,100368.88
2022-11-05T08:44:39.621Z,100369.81
2022-11-05T08:47:09.533Z,100362.06
2022-11-05T08:49:37.650Z,100363.81
2022-11-05T08:52:08.794Z,100369.03
2022-11-05T08:54:38.296Z,100365.59
2022-11-05T08:57:10.170Z,100378.53
2022-11-05T08:59:38.236Z,100375.97
2022-11-05T09:02:17.158Z,100370.78
2022-11-05T09:04:48.528Z,100382.00
2022-11-05T09:07:16.577Z,100383.75
2022-11-05T09:09:46.056Z,100384.59
2022-11-05T09:12:18.810Z,100387.22
2022-11-05T09:14:46.882Z,100381.16
2022-11-05T09:17:18.736Z,100385.50
2022-11-05T09:19:47.338Z,100389.81
2022-11-05T09:22:15.943Z,100389.81
2022-11-05T09:24:45.425Z,100385.50
2022-11-05T09:27:14.757Z,100388.09
2022-11-05T09:29:49.640Z,100388.13
2022-11-05T09:32:21.150Z,100401.06
2022-11-05T09:34:50.179Z,100398.47
2022-11-05T09:37:18.225Z,100389.81
2022-11-05T09:39:47.635Z,100404.50
2022-11-05T09:42:19.195Z,100389.81
2022-11-05T09:44:55.287Z,100386.38
2022-11-05T09:47:28.336Z,100387.25
2022-11-05T09:50:00.180Z,100381.22
2022-11-05T09:52:31.002Z,100385.50
2022-11-05T09:55:00.998Z,100382.94
2022-11-05T09:57:34.889Z,100390.69
2022-11-05T10:00:08.380Z,100395.00
2022-11-05T10:02:42.860Z,100406.22
2022-11-05T10:05:15.152Z,100409.69
2022-11-05T10:07:50.571Z,100416.59
2022-11-05T10:10:40.495Z,100415.69
2022-11-05T10:13:23.215Z,100409.63
2022-11-05T10:15:59.693Z,100420.00
2022-11-05T10:18:32.929Z,100425.22
2022-11-05T10:21:04.159Z,100420.06
2022-11-05T10:23:32.358Z,100420.06
2022-11-05T10:26:09.474Z,100421.78
2022-11-05T10:28:40.459Z,100429.56
2022-11-05T10:31:13.281Z,100434.78
2022-11-05T10:33:48.915Z,100422.66
2022-11-05T10:36:23.010Z,100434.75
2022-11-05T10:38:54.300Z,100422.66
2022-11-05T10:41:33.148Z,100415.75
2022-11-05T10:44:09.132Z,100410.53
2022-11-05T10:46:55.436Z,100433.06
2022-11-05T10:49:38.794Z,100429.56
2022-11-05T10:52:20.228Z,100419.16
2022-11-05T10:54:50.195Z,100420.84
2022-11-05T10:57:35.446Z,100415.56
2022-11-05T11:00:30.779Z,100425.03
2022-11-05T11:03:03.086Z,100436.41
2022-11-05T11:05:34.421Z,100424.31
2022-11-05T11:08:13.011Z,100431.25
2022-11-05T11:10:58.517Z,100438.16
2022-11-05T11:13:53.417Z,100435.59
2022-11-05T11:16:26.297Z,100431.28
2022-11-05T11:19:01.661Z,100417.44
2022-11-05T11:21:39.164Z,100437.31
2022-11-05T11:24:23.313Z,100450.22
2022-11-05T11:26:53.266Z,100436.38
2022-11-05T11:29:36.220Z,100448.53
2022-11-05T11:32:18.139Z,100457.19
2022-11-05T11:38:00.441Z,100445.97
2022-11-05T12:33:22.433Z,100465.84
2022-11-05T16:13:33.016Z,100493.25
2022-11-05T16:16:06.319Z,100493.25
2022-11-05T16:18:36.430Z,100492.34
2022-11-05T16:21:34.827Z,100498.34
2022-11-05T16:24:56.278Z,100505.13
2022-11-05T16:27:22.692Z,100494.72
2022-11-05T16:34:42.379Z,100493.72
2022-11-05T16:45:41.617Z,100508.91
2022-11-05T17:07:17.838Z,100540.16
2022-11-05T17:09:56.375Z,100540.09
2022-11-05T17:12:31.578Z,100542.63
